sensor_id;sensor_type;location;lat;lon;timestamp;temperature;humidity
43647;DHT22;56152;49.996;18.980;2022-09-09T00:01:31;17.00;95.00
43647;DHT22;56152;49.996;18.980;2022-09-09T00:06:43;17.00;95.00
43647;DHT22;56152;49.996;18.980;2022-09-09T00:11:53;17.00;95.00
43647;DHT22;56152;49.996;18.980;2022-09-09T00:17:02;16.90;95.10
43647;DHT22;56152;49.996;18.980;2022-09-09T00:22:18;16.90;95.10
43647;DHT22;56152;49.996;18.980;2022-09-09T00:27:25;16.90;95.10
43647;DHT22;56152;49.996;18.980;2022-09-09T00:32:33;16.80;95.20
43647;DHT22;56152;49.996;18.980;2022-09-09T00:37:38;16.80;95.20
43647;DHT22;56152;49.996;18.980;2022-09-09T00:42:42;16.80;95.30
43647;DHT22;56152;49.996;18.980;2022-09-09T00:47:45;16.80;95.30
43647;DHT22;56152;49.996;18.980;2022-09-09T00:52:59;16.80;95.30
43647;DHT22;56152;49.996;18.980;2022-09-09T00:58:02;16.80;95.40
43647;DHT22;56152;49.996;18.980;2022-09-09T01:03:22;16.70;95.40
43647;DHT22;56152;49.996;18.980;2022-09-09T01:08:57;16.70;95.40
43647;DHT22;56152;49.996;18.980;2022-09-09T01:14:12;16.70;95.40
43647;DHT22;56152;49.996;18.980;2022-09-09T01:19:20;16.70;95.40
43647;DHT22;56152;49.996;18.980;2022-09-09T01:24:30;16.70;95.50
43647;DHT22;56152;49.996;18.980;2022-09-09T01:29:38;16.60;95.40
43647;DHT22;56152;49.996;18.980;2022-09-09T01:34:41;16.60;95.50
43647;DHT22;56152;49.996;18.980;2022-09-09T01:39:44;16.50;95.80
43647;DHT22;56152;49.996;18.980;2022-09-09T01:44:48;16.60;95.60
43647;DHT22;56152;49.996;18.980;2022-09-09T01:49:50;16.50;95.50
43647;DHT22;56152;49.996;18.980;2022-09-09T01:54:52;16.50;95.60
43647;DHT22;56152;49.996;18.980;2022-09-09T02:00:02;16.40;95.60
43647;DHT22;56152;49.996;18.980;2022-09-09T02:05:16;16.40;95.60
43647;DHT22;56152;49.996;18.980;2022-09-09T02:10:22;16.30;95.70
43647;DHT22;56152;49.996;18.980;2022-09-09T02:15:34;16.20;95.70
43647;DHT22;56152;49.996;18.980;2022-09-09T02:20:39;16.20;95.70
43647;DHT22;56152;49.996;18.980;2022-09-09T02:25:42;16.10;95.80
43647;DHT22;56152;49.996;18.980;2022-09-09T02:30:50;16.10;95.80
43647;DHT22;56152;49.996;18.980;2022-09-09T02:36:00;16.10;95.80
43647;DHT22;56152;49.996;18.980;2022-09-09T02:41:04;16.10;96.10
43647;DHT22;56152;49.996;18.980;2022-09-09T02:46:27;16.10;95.80
43647;DHT22;56152;49.996;18.980;2022-09-09T02:51:40;16.10;95.90
43647;DHT22;56152;49.996;18.980;2022-09-09T02:56:51;16.10;95.90
43647;DHT22;56152;49.996;18.980;2022-09-09T03:01:56;16.10;95.90
43647;DHT22;56152;49.996;18.980;2022-09-09T03:06:58;16.10;95.90
43647;DHT22;56152;49.996;18.980;2022-09-09T03:12:01;16.10;95.90
43647;DHT22;56152;49.996;18.980;2022-09-09T03:17:08;16.10;95.80
43647;DHT22;56152;49.996;18.980;2022-09-09T03:22:10;16.20;95.90
43647;DHT22;56152;49.996;18.980;2022-09-09T03:27:13;16.20;95.90
43647;DHT22;56152;49.996;18.980;2022-09-09T03:32:18;16.20;95.80
43647;DHT22;56152;49.996;18.980;2022-09-09T03:37:25;16.10;95.80
43647;DHT22;56152;49.996;18.980;2022-09-09T03:42:27;16.20;95.80
43647;DHT22;56152;49.996;18.980;2022-09-09T03:47:30;16.10;95.80
43647;DHT22;56152;49.996;18.980;2022-09-09T03:52:34;16.10;95.80
43647;DHT22;56152;49.996;18.980;2022-09-09T03:57:36;16.10;95.90
43647;DHT22;56152;49.996;18.980;2022-09-09T04:02:39;16.10;95.90
43647;DHT22;56152;49.996;18.980;2022-09-09T04:07:41;16.00;95.90
43647;DHT22;56152;49.996;18.980;2022-09-09T04:12:43;16.00;95.90
43647;DHT22;56152;49.996;18.980;2022-09-09T04:17:48;16.00;95.90
43647;DHT22;56152;49.996;18.980;2022-09-09T04:22:50;16.10;96.00
43647;DHT22;56152;49.996;18.980;2022-09-09T04:27:53;16.00;96.00
43647;DHT22;56152;49.996;18.980;2022-09-09T04:32:58;16.10;96.00
43647;DHT22;56152;49.996;18.980;2022-09-09T04:38:00;16.00;96.00
43647;DHT22;56152;49.996;18.980;2022-09-09T04:43:05;16.00;96.00
43647;DHT22;56152;49.996;18.980;2022-09-09T04:48:10;16.00;96.00
43647;DHT22;56152;49.996;18.980;2022-09-09T04:53:11;16.00;96.00
43647;DHT22;56152;49.996;18.980;2022-09-09T04:58:14;16.10;96.00
43647;DHT22;56152;49.996;18.980;2022-09-09T05:03:17;16.10;95.90
43647;DHT22;56152;49.996;18.980;2022-09-09T05:08:19;16.20;95.90
43647;DHT22;56152;49.996;18.980;2022-09-09T05:13:22;16.20;95.80
43647;DHT22;56152;49.996;18.980;2022-09-09T05:18:25;16.30;95.80
43647;DHT22;56152;49.996;18.980;2022-09-09T05:23:34;16.30;95.80
43647;DHT22;56152;49.996;18.980;2022-09-09T05:28:38;16.40;95.70
43647;DHT22;56152;49.996;18.980;2022-09-09T05:33:43;16.40;95.50
43647;DHT22;56152;49.996;18.980;2022-09-09T05:38:46;16.50;95.50
43647;DHT22;56152;49.996;18.980;2022-09-09T05:43:50;16.50;95.40
43647;DHT22;56152;49.996;18.980;2022-09-09T05:48:53;16.50;95.30
43647;DHT22;56152;49.996;18.980;2022-09-09T05:53:58;16.60;95.30
43647;DHT22;56152;49.996;18.980;2022-09-09T05:59:04;16.60;95.30
43647;DHT22;56152;49.996;18.980;2022-09-09T06:04:12;17.00;95.10
43647;DHT22;56152;49.996;18.980;2022-09-09T06:09:15;17.60;94.60
43647;DHT22;56152;49.996;18.980;2022-09-09T06:14:17;18.20;94.00
43647;DHT22;56152;49.996;18.980;2022-09-09T06:19:23;18.80;93.30
43647;DHT22;56152;49.996;18.980;2022-09-09T06:24:30;19.30;92.60
43647;DHT22;56152;49.996;18.980;2022-09-09T06:29:33;19.60;92.00
43647;DHT22;56152;49.996;18.980;2022-09-09T06:34:37;19.60;91.80
43647;DHT22;56152;49.996;18.980;2022-09-09T06:39:39;19.80;91.60
43647;DHT22;56152;49.996;18.980;2022-09-09T06:44:43;20.10;91.00
43647;DHT22;56152;49.996;18.980;2022-09-09T06:49:49;20.50;90.00
43647;DHT22;56152;49.996;18.980;2022-09-09T06:54:51;20.70;88.60
43647;DHT22;56152;49.996;18.980;2022-09-09T06:59:55;20.90;88.00
43647;DHT22;56152;49.996;18.980;2022-09-09T07:04:58;20.90;87.40
43647;DHT22;56152;49.996;18.980;2022-09-09T07:10:00;21.00;87.10
43647;DHT22;56152;49.996;18.980;2022-09-09T07:15:03;21.30;86.20
43647;DHT22;56152;49.996;18.980;2022-09-09T07:20:14;21.70;84.80
43647;DHT22;56152;49.996;18.980;2022-09-09T07:25:22;22.10;83.60
43647;DHT22;56152;49.996;18.980;2022-09-09T07:30:30;22.50;82.60
43647;DHT22;56152;49.996;18.980;2022-09-09T07:35:35;22.50;82.20
43647;DHT22;56152;49.996;18.980;2022-09-09T07:40:40;22.80;81.90
43647;DHT22;56152;49.996;18.980;2022-09-09T07:45:42;23.20;81.20
43647;DHT22;56152;49.996;18.980;2022-09-09T07:50:46;23.40;79.30
43647;DHT22;56152;49.996;18.980;2022-09-09T07:55:48;23.80;78.30
43647;DHT22;56152;49.996;18.980;2022-09-09T08:00:50;24.00;77.20
43647;DHT22;56152;49.996;18.980;2022-09-09T08:06:00;24.30;76.80
43647;DHT22;56152;49.996;18.980;2022-09-09T08:11:04;24.50;76.10
43647;DHT22;56152;49.996;18.980;2022-09-09T08:16:10;24.30;75.40
43647;DHT22;56152;49.996;18.980;2022-09-09T08:21:19;24.50;75.00
43647;DHT22;56152;49.996;18.980;2022-09-09T08:26:23;24.70;74.90
43647;DHT22;56152;49.996;18.980;2022-09-09T08:31:31;24.50;74.50
43647;DHT22;56152;49.996;18.980;2022-09-09T08:36:38;24.20;75.80
43647;DHT22;56152;49.996;18.980;2022-09-09T08:42:11;24.60;73.70
43647;DHT22;56152;49.996;18.980;2022-09-09T08:47:24;25.00;73.10
43647;DHT22;56152;49.996;18.980;2022-09-09T08:52:48;25.10;72.20
43647;DHT22;56152;49.996;18.980;2022-09-09T08:57:53;24.70;72.30
43647;DHT22;56152;49.996;18.980;2022-09-09T09:03:06;24.80;72.80
43647;DHT22;56152;49.996;18.980;2022-09-09T09:08:17;25.10;72.50
43647;DHT22;56152;49.996;18.980;2022-09-09T09:13:30;24.90;72.50
43647;DHT22;56152;49.996;18.980;2022-09-09T09:18:32;24.80;72.40
43647;DHT22;56152;49.996;18.980;2022-09-09T09:23:45;25.10;70.50
43647;DHT22;56152;49.996;18.980;2022-09-09T09:28:49;25.00;70.80
43647;DHT22;56152;49.996;18.980;2022-09-09T09:33:53;24.90;70.50
43647;DHT22;56152;49.996;18.980;2022-09-09T09:39:02;24.90;69.70
43647;DHT22;56152;49.996;18.980;2022-09-09T09:44:19;24.90;69.50
43647;DHT22;56152;49.996;18.980;2022-09-09T09:49:23;24.80;69.30
43647;DHT22;56152;49.996;18.980;2022-09-09T09:54:28;24.80;69.60
43647;DHT22;56152;49.996;18.980;2022-09-09T09:59:35;25.10;68.60
43647;DHT22;56152;49.996;18.980;2022-09-09T10:04:36;25.40;68.40
43647;DHT22;56152;49.996;18.980;2022-09-09T10:09:41;25.20;67.70
43647;DHT22;56152;49.996;18.980;2022-09-09T10:14:49;24.60;68.30
43647;DHT22;56152;49.996;18.980;2022-09-09T10:20:04;25.10;67.80
43647;DHT22;56152;49.996;18.980;2022-09-09T10:25:26;25.00;67.90
43647;DHT22;56152;49.996;18.980;2022-09-09T10:30:39;24.80;68.10
43647;DHT22;56152;49.996;18.980;2022-09-09T10:35:49;24.70;68.10
43647;DHT22;56152;49.996;18.980;2022-09-09T10:41:23;24.50;68.40
43647;DHT22;56152;49.996;18.980;2022-09-09T10:46:40;24.60;67.70
43647;DHT22;56152;49.996;18.980;2022-09-09T10:51:50;24.90;66.90
43647;DHT22;56152;49.996;18.980;2022-09-09T10:57:02;24.90;67.30
43647;DHT22;56152;49.996;18.980;2022-09-09T11:02:17;24.80;66.10
43647;DHT22;56152;49.996;18.980;2022-09-09T11:07:27;24.50;67.30
43647;DHT22;56152;49.996;18.980;2022-09-09T11:12:35;24.80;65.60
43647;DHT22;56152;49.996;18.980;2022-09-09T11:17:42;24.70;64.90
43647;DHT22;56152;49.996;18.980;2022-09-09T11:22:50;24.80;64.30
43647;DHT22;56152;49.996;18.980;2022-09-09T11:28:10;24.90;64.10
43647;DHT22;56152;49.996;18.980;2022-09-09T11:33:55;24.90;64.10
43647;DHT22;56152;49.996;18.980;2022-09-09T11:39:07;25.10;63.60
43647;DHT22;56152;49.996;18.980;2022-09-09T11:44:24;25.30;63.00
43647;DHT22;56152;49.996;18.980;2022-09-09T11:49:30;25.40;63.00
43647;DHT22;56152;49.996;18.980;2022-09-09T11:54:46;25.30;62.30
43647;DHT22;56152;49.996;18.980;2022-09-09T11:59:52;24.90;62.80
43647;DHT22;56152;49.996;18.980;2022-09-09T12:04:59;24.70;64.10
43647;DHT22;56152;49.996;18.980;2022-09-09T12:10:05;24.50;63.80
43647;DHT22;56152;49.996;18.980;2022-09-09T12:15:34;24.40;63.50
43647;DHT22;56152;49.996;18.980;2022-09-09T12:20:37;24.40;63.80
43647;DHT22;56152;49.996;18.980;2022-09-09T12:25:48;24.30;63.80
43647;DHT22;56152;49.996;18.980;2022-09-09T12:31:00;24.20;63.30
43647;DHT22;56152;49.996;18.980;2022-09-09T12:36:05;24.10;64.20
43647;DHT22;56152;49.996;18.980;2022-09-09T12:41:20;24.10;63.70
43647;DHT22;56152;49.996;18.980;2022-09-09T12:46:33;24.20;63.60
43647;DHT22;56152;49.996;18.980;2022-09-09T12:51:38;24.10;63.80
43647;DHT22;56152;49.996;18.980;2022-09-09T12:56:46;24.00;63.60
43647;DHT22;56152;49.996;18.980;2022-09-09T13:01:55;23.90;64.10
43647;DHT22;56152;49.996;18.980;2022-09-09T13:07:06;23.70;64.70
43647;DHT22;56152;49.996;18.980;2022-09-09T13:12:14;23.70;65.10
43647;DHT22;56152;49.996;18.980;2022-09-09T13:17:27;23.70;65.20
43647;DHT22;56152;49.996;18.980;2022-09-09T13:22:33;23.60;65.10
43647;DHT22;56152;49.996;18.980;2022-09-09T13:27:37;23.50;65.10
43647;DHT22;56152;49.996;18.980;2022-09-09T13:32:41;23.60;64.60
43647;DHT22;56152;49.996;18.980;2022-09-09T13:37:51;23.70;64.10
43647;DHT22;56152;49.996;18.980;2022-09-09T13:42:56;23.80;63.90
43647;DHT22;56152;49.996;18.980;2022-09-09T13:48:09;23.80;63.80
43647;DHT22;56152;49.996;18.980;2022-09-09T13:53:14;23.70;63.90
43647;DHT22;56152;49.996;18.980;2022-09-09T13:58:17;23.60;64.60
43647;DHT22;56152;49.996;18.980;2022-09-09T14:03:21;23.30;65.20
43647;DHT22;56152;49.996;18.980;2022-09-09T14:08:27;23.10;66.30
43647;DHT22;56152;49.996;18.980;2022-09-09T14:13:37;22.90;67.00
43647;DHT22;56152;49.996;18.980;2022-09-09T14:18:50;22.80;67.50
43647;DHT22;56152;49.996;18.980;2022-09-09T14:23:53;22.70;67.50
43647;DHT22;56152;49.996;18.980;2022-09-09T14:28:55;22.70;67.90
43647;DHT22;56152;49.996;18.980;2022-09-09T14:34:02;22.70;67.50
43647;DHT22;56152;49.996;18.980;2022-09-09T14:39:04;22.70;67.70
43647;DHT22;56152;49.996;18.980;2022-09-09T14:44:06;22.70;67.90
43647;DHT22;56152;49.996;18.980;2022-09-09T14:49:10;22.50;68.30
43647;DHT22;56152;49.996;18.980;2022-09-09T14:54:13;22.40;68.50
43647;DHT22;56152;49.996;18.980;2022-09-09T14:59:18;22.40;68.70
43647;DHT22;56152;49.996;18.980;2022-09-09T15:04:24;22.40;68.40
43647;DHT22;56152;49.996;18.980;2022-09-09T15:09:26;22.50;68.40
43647;DHT22;56152;49.996;18.980;2022-09-09T15:14:27;22.40;68.30
43647;DHT22;56152;49.996;18.980;2022-09-09T15:19:34;22.30;68.40
43647;DHT22;56152;49.996;18.980;2022-09-09T15:24:40;22.10;68.60
43647;DHT22;56152;49.996;18.980;2022-09-09T15:29:46;21.90;69.10
43647;DHT22;56152;49.996;18.980;2022-09-09T15:34:50;21.70;69.50
43647;DHT22;56152;49.996;18.980;2022-09-09T15:39:57;21.50;70.40
43647;DHT22;56152;49.996;18.980;2022-09-09T15:45:00;21.30;71.20
43647;DHT22;56152;49.996;18.980;2022-09-09T15:50:04;21.10;72.00
43647;DHT22;56152;49.996;18.980;2022-09-09T15:55:07;20.90;72.90
43647;DHT22;56152;49.996;18.980;2022-09-09T16:00:13;20.80;73.70
43647;DHT22;56152;49.996;18.980;2022-09-09T16:05:17;20.70;74.30
43647;DHT22;56152;49.996;18.980;2022-09-09T16:10:21;20.60;74.80
43647;DHT22;56152;49.996;18.980;2022-09-09T16:15:26;20.50;75.50
43647;DHT22;56152;49.996;18.980;2022-09-09T16:20:30;20.40;76.10
43647;DHT22;56152;49.996;18.980;2022-09-09T16:25:31;20.40;76.80
43647;DHT22;56152;49.996;18.980;2022-09-09T16:30:36;20.30;77.10
43647;DHT22;56152;49.996;18.980;2022-09-09T16:35:40;20.20;77.70
43647;DHT22;56152;49.996;18.980;2022-09-09T16:40:42;20.00;78.30
43647;DHT22;56152;49.996;18.980;2022-09-09T16:45:45;19.90;78.70
43647;DHT22;56152;49.996;18.980;2022-09-09T16:50:49;19.80;79.10
43647;DHT22;56152;49.996;18.980;2022-09-09T16:55:51;19.60;79.40
43647;DHT22;56152;49.996;18.980;2022-09-09T17:00:58;19.50;80.10
43647;DHT22;56152;49.996;18.980;2022-09-09T17:06:01;19.50;80.40
43647;DHT22;56152;49.996;18.980;2022-09-09T17:11:03;19.50;80.40
43647;DHT22;56152;49.996;18.980;2022-09-09T17:16:05;19.30;80.90
43647;DHT22;56152;49.996;18.980;2022-09-09T17:21:12;19.20;81.20
43647;DHT22;56152;49.996;18.980;2022-09-09T17:26:16;19.20;81.60
43647;DHT22;56152;49.996;18.980;2022-09-09T17:31:18;19.10;81.80
43647;DHT22;56152;49.996;18.980;2022-09-09T17:36:23;19.00;81.90
43647;DHT22;56152;49.996;18.980;2022-09-09T17:41:27;18.90;82.20
43647;DHT22;56152;49.996;18.980;2022-09-09T17:46:32;18.80;82.40
43647;DHT22;56152;49.996;18.980;2022-09-09T17:51:41;18.70;82.70
43647;DHT22;56152;49.996;18.980;2022-09-09T17:56:44;18.60;82.90
43647;DHT22;56152;49.996;18.980;2022-09-09T18:01:49;18.50;83.10
43647;DHT22;56152;49.996;18.980;2022-09-09T18:06:54;18.40;83.40
43647;DHT22;56152;49.996;18.980;2022-09-09T18:11:57;18.40;83.70
43647;DHT22;56152;49.996;18.980;2022-09-09T18:17:01;18.30;84.20
43647;DHT22;56152;49.996;18.980;2022-09-09T18:22:05;18.20;84.90
43647;DHT22;56152;49.996;18.980;2022-09-09T18:27:12;18.10;85.40
43647;DHT22;56152;49.996;18.980;2022-09-09T18:32:15;17.90;85.70
43647;DHT22;56152;49.996;18.980;2022-09-09T18:37:22;17.90;86.10
43647;DHT22;56152;49.996;18.980;2022-09-09T18:42:25;17.80;86.50
43647;DHT22;56152;49.996;18.980;2022-09-09T18:47:27;17.80;86.80
43647;DHT22;56152;49.996;18.980;2022-09-09T18:52:31;17.70;87.20
43647;DHT22;56152;49.996;18.980;2022-09-09T18:57:34;17.70;87.60
43647;DHT22;56152;49.996;18.980;2022-09-09T19:02:38;17.70;87.60
43647;DHT22;56152;49.996;18.980;2022-09-09T19:07:41;17.70;87.60
43647;DHT22;56152;49.996;18.980;2022-09-09T19:12:43;17.70;87.80
43647;DHT22;56152;49.996;18.980;2022-09-09T19:17:46;17.60;88.00
43647;DHT22;56152;49.996;18.980;2022-09-09T19:22:50;17.60;88.00
43647;DHT22;56152;49.996;18.980;2022-09-09T19:27:52;17.50;88.30
43647;DHT22;56152;49.996;18.980;2022-09-09T19:32:56;17.30;88.60
43647;DHT22;56152;49.996;18.980;2022-09-09T19:38:06;17.30;89.00
43647;DHT22;56152;49.996;18.980;2022-09-09T19:43:08;17.20;89.20
43647;DHT22;56152;49.996;18.980;2022-09-09T19:48:11;17.10;89.30
43647;DHT22;56152;49.996;18.980;2022-09-09T19:53:17;17.10;89.60
43647;DHT22;56152;49.996;18.980;2022-09-09T19:58:26;17.00;89.90
43647;DHT22;56152;49.996;18.980;2022-09-09T20:03:38;16.90;90.10
43647;DHT22;56152;49.996;18.980;2022-09-09T20:08:44;16.90;90.20
43647;DHT22;56152;49.996;18.980;2022-09-09T20:13:52;16.90;90.20
43647;DHT22;56152;49.996;18.980;2022-09-09T20:18:58;16.90;90.20
43647;DHT22;56152;49.996;18.980;2022-09-09T20:24:05;16.90;90.20
43647;DHT22;56152;49.996;18.980;2022-09-09T20:29:14;16.90;90.20
43647;DHT22;56152;49.996;18.980;2022-09-09T20:34:18;16.80;90.20
43647;DHT22;56152;49.996;18.980;2022-09-09T20:39:24;16.70;90.30
43647;DHT22;56152;49.996;18.980;2022-09-09T20:44:27;16.70;90.30
43647;DHT22;56152;49.996;18.980;2022-09-09T20:49:29;16.70;90.40
43647;DHT22;56152;49.996;18.980;2022-09-09T20:54:39;16.60;90.40
43647;DHT22;56152;49.996;18.980;2022-09-09T20:59:45;16.60;90.60
43647;DHT22;56152;49.996;18.980;2022-09-09T21:04:51;16.60;90.70
43647;DHT22;56152;49.996;18.980;2022-09-09T21:09:57;16.60;90.70
43647;DHT22;56152;49.996;18.980;2022-09-09T21:15:02;16.60;90.70
43647;DHT22;56152;49.996;18.980;2022-09-09T21:20:07;16.60;90.80
43647;DHT22;56152;49.996;18.980;2022-09-09T21:25:24;16.50;90.80
43647;DHT22;56152;49.996;18.980;2022-09-09T21:30:26;16.40;90.90
43647;DHT22;56152;49.996;18.980;2022-09-09T21:35:29;16.40;91.00
43647;DHT22;56152;49.996;18.980;2022-09-09T21:40:37;16.40;91.10
43647;DHT22;56152;49.996;18.980;2022-09-09T21:45:42;16.30;91.30
43647;DHT22;56152;49.996;18.980;2022-09-09T21:50:45;16.30;91.30
43647;DHT22;56152;49.996;18.980;2022-09-09T21:55:50;16.40;91.40
43647;DHT22;56152;49.996;18.980;2022-09-09T22:00:52;16.40;91.30
43647;DHT22;56152;49.996;18.980;2022-09-09T22:05:55;16.40;91.40
43647;DHT22;56152;49.996;18.980;2022-09-09T22:11:04;16.40;91.50
43647;DHT22;56152;49.996;18.980;2022-09-09T22:16:08;16.30;91.70
43647;DHT22;56152;49.996;18.980;2022-09-09T22:21:14;16.30;91.80
43647;DHT22;56152;49.996;18.980;2022-09-09T22:26:20;16.30;92.00
43647;DHT22;56152;49.996;18.980;2022-09-09T22:31:22;16.30;92.10
43647;DHT22;56152;49.996;18.980;2022-09-09T22:36:25;16.30;92.20
43647;DHT22;56152;49.996;18.980;2022-09-09T22:41:48;16.30;92.20
43647;DHT22;56152;49.996;18.980;2022-09-09T22:46:55;16.30;92.20
43647;DHT22;56152;49.996;18.980;2022-09-09T22:51:57;16.30;92.10
43647;DHT22;56152;49.996;18.980;2022-09-09T22:57:05;16.40;92.20
43647;DHT22;56152;49.996;18.980;2022-09-09T23:02:09;16.40;92.30
43647;DHT22;56152;49.996;18.980;2022-09-09T23:07:13;16.40;92.20
43647;DHT22;56152;49.996;18.980;2022-09-09T23:12:29;16.50;92.30
43647;DHT22;56152;49.996;18.980;2022-09-09T23:17:31;16.50;92.30
43647;DHT22;56152;49.996;18.980;2022-09-09T23:22:34;16.60;92.40
43647;DHT22;56152;49.996;18.980;2022-09-09T23:27:44;16.40;92.50
43647;DHT22;56152;49.996;18.980;2022-09-09T23:32:47;16.30;92.60
43647;DHT22;56152;49.996;18.980;2022-09-09T23:37:54;16.30;92.70
43647;DHT22;56152;49.996;18.980;2022-09-09T23:42:58;16.30;92.80
43647;DHT22;56152;49.996;18.980;2022-09-09T23:48:00;16.30;92.80
43647;DHT22;56152;49.996;18.980;2022-09-09T23:53:10;16.30;92.90
43647;DHT22;56152;49.996;18.980;2022-09-09T23:58:14;16.30;93.00
